Time;durP1;ratioP1;P1;durP2;ratioP2;P2;SDS_P1;SDS_P2;PMS_P1;PMS_P2;Temp;Humidity;BMP_temperature;BMP_pressure;BME280_temperature;BME280_humidity;BME280_pressure;Samples;Min_cycle;Max_cycle;Signal;HPM_P1;HPM_P2
2021/09/26 00:01:26;;;;;;;15.45;12.43;;;;;;;16.59;100.00;99148.67;2189402;81;20955;-83
2021/09/26 00:04:27;;;;;;;13.55;11.63;;;;;;;16.63;100.00;99154.64;2189505;81;21462;-82
2021/09/26 00:07:27;;;;;;;14.05;11.83;;;;;;;16.67;100.00;99151.09;2189482;81;20989;-83
2021/09/26 00:10:28;;;;;;;16.25;11.90;;;;;;;16.68;100.00;99158.84;2189606;81;20993;-82
2021/09/26 00:13:29;;;;;;;14.65;12.07;;;;;;;16.67;100.00;99153.73;2189397;81;21028;-82
2021/09/26 00:16:30;;;;;;;14.15;12.15;;;;;;;16.64;100.00;99162.06;2189391;81;20973;-82
2021/09/26 00:19:31;;;;;;;13.93;12.43;;;;;;;16.60;100.00;99158.22;2189535;81;21008;-83
2021/09/26 00:22:31;;;;;;;15.68;12.58;;;;;;;16.55;100.00;99157.54;2179605;81;21607;-83
2021/09/26 00:25:33;;;;;;;15.58;13.83;;;;;;;16.54;100.00;99153.75;2148390;83;20973;-83
2021/09/26 00:28:35;;;;;;;15.90;12.93;;;;;;;16.54;100.00;99151.92;2103826;85;21026;-83
2021/09/26 00:31:36;;;;;;;16.48;13.13;;;;;;;16.51;100.00;99149.70;2148401;83;21583;-82
2021/09/26 00:34:37;;;;;;;16.75;13.45;;;;;;;16.52;100.00;99147.36;2148336;83;21055;-82
2021/09/26 00:37:38;;;;;;;16.20;13.65;;;;;;;16.48;100.00;99150.13;2148487;82;21279;-82
2021/09/26 00:40:39;;;;;;;17.62;13.70;;;;;;;16.48;100.00;99152.77;2148588;83;21543;-82
2021/09/26 00:43:39;;;;;;;17.82;14.18;;;;;;;16.48;100.00;99151.45;2148402;83;21035;-83
2021/09/26 00:46:40;;;;;;;18.85;13.28;;;;;;;16.46;100.00;99156.95;2103825;85;20991;-82
2021/09/26 00:49:41;;;;;;;16.02;14.25;;;;;;;16.44;100.00;99155.00;2148676;82;21495;-82
2021/09/26 00:52:42;;;;;;;19.48;14.78;;;;;;;16.45;100.00;99155.30;2148286;83;20986;-83
2021/09/26 00:55:43;;;;;;;17.25;14.18;;;;;;;16.46;100.00;99154.81;2148464;83;21511;-82
2021/09/26 00:58:46;;;;;;;16.32;14.00;;;;;;;16.49;100.00;99155.71;2147815;83;21060;-82
2021/09/26 01:01:47;;;;;;;20.75;14.58;;;;;;;16.49;100.00;99159.67;2148437;83;20985;-83
2021/09/26 01:04:48;;;;;;;17.35;13.88;;;;;;;16.45;100.00;99159.27;2148416;83;21497;-83
2021/09/26 01:07:49;;;;;;;17.20;14.47;;;;;;;16.41;100.00;99161.22;2148439;83;21035;-83
2021/09/26 01:10:50;;;;;;;18.77;14.87;;;;;;;16.39;100.00;99160.10;2148278;83;21024;-83
2021/09/26 01:13:51;;;;;;;19.30;15.58;;;;;;;16.42;100.00;99162.84;2148509;83;21611;-83
2021/09/26 01:16:57;;;;;;;19.23;15.95;;;;;;;16.44;100.00;99163.44;2148290;83;21005;-83
2021/09/26 01:19:54;;;;;;;17.37;14.73;;;;;;;16.45;100.00;99159.77;2147996;82;21013;-83
2021/09/26 01:22:55;;;;;;;18.32;14.58;;;;;;;16.40;100.00;99164.37;2148937;81;21608;-83
2021/09/26 01:25:56;;;;;;;17.57;13.80;;;;;;;16.40;100.00;99164.37;2148267;83;21005;-83
2021/09/26 01:28:56;;;;;;;16.48;14.78;;;;;;;16.39;100.00;99161.94;2103896;85;21046;-83
2021/09/26 01:31:57;;;;;;;20.25;13.90;;;;;;;16.39;100.00;99163.26;2148376;82;21005;-83
2021/09/26 01:34:58;;;;;;;20.27;15.15;;;;;;;16.38;100.00;99164.28;2148289;83;20985;-83
2021/09/26 01:37:59;;;;;;;18.07;14.85;;;;;;;16.34;100.00;99165.18;2148369;82;21020;-83
2021/09/26 01:41:00;;;;;;;19.60;14.53;;;;;;;16.35;100.00;99167.31;2148264;83;21009;-83
2021/09/26 01:44:00;;;;;;;15.60;14.00;;;;;;;16.36;100.00;99172.39;2148331;83;21092;-83
2021/09/26 01:47:01;;;;;;;16.67;14.43;;;;;;;16.36;100.00;99174.22;2148364;83;21005;-83
2021/09/26 01:50:02;;;;;;;15.78;14.05;;;;;;;16.35;100.00;99169.45;2148280;83;21476;-83
2021/09/26 01:53:03;;;;;;;16.15;14.03;;;;;;;16.39;100.00;99185.72;2148207;83;21060;-83
2021/09/26 01:56:04;;;;;;;15.65;13.78;;;;;;;16.40;100.00;99182.05;2148249;83;21013;-83
2021/09/26 01:59:04;;;;;;;14.50;12.98;;;;;;;16.40;100.00;99182.86;2148487;83;22138;-83
2021/09/26 02:02:05;;;;;;;13.53;12.03;;;;;;;16.39;100.00;99183.08;2148233;83;20973;-83
2021/09/26 02:05:06;;;;;;;19.00;14.28;;;;;;;16.34;100.00;99179.71;2148403;83;21511;-83
2021/09/26 02:08:07;;;;;;;16.15;14.23;;;;;;;16.30;100.00;99177.70;2148267;83;21012;-83
2021/09/26 02:11:08;;;;;;;16.77;13.62;;;;;;;16.34;100.00;99181.55;2148472;83;21504;-83
2021/09/26 02:14:09;;;;;;;15.25;13.55;;;;;;;16.31;100.00;99178.00;2148255;83;20973;-83
2021/09/26 02:17:10;;;;;;;16.77;13.38;;;;;;;16.27;100.00;99175.45;2148255;83;21479;-83
2021/09/26 02:20:10;;;;;;;17.52;13.75;;;;;;;16.27;100.00;99184.70;2148338;83;20961;-83
2021/09/26 02:23:11;;;;;;;13.68;12.25;;;;;;;16.28;100.00;99184.52;2158934;81;21083;-82
2021/09/26 02:26:12;;;;;;;17.00;14.35;;;;;;;16.28;100.00;99188.48;2185781;81;20946;-82
2021/09/26 02:29:13;;;;;;;17.07;14.00;;;;;;;16.29;100.00;99185.33;2185701;81;20992;-83
2021/09/26 02:32:14;;;;;;;17.67;14.58;;;;;;;16.32;100.00;99184.91;2185694;81;21053;-82
2021/09/26 02:35:15;;;;;;;14.95;13.45;;;;;;;16.33;100.00;99186.53;2185614;81;21508;-83
2021/09/26 02:38:16;;;;;;;17.60;14.15;;;;;;;16.32;100.00;99192.33;2185596;81;20965;-83
2021/09/26 02:41:16;;;;;;;16.27;12.63;;;;;;;16.30;100.00;99197.52;2185725;81;21000;-82
2021/09/26 02:44:17;;;;;;;18.45;14.93;;;;;;;16.32;100.00;99198.93;2185737;81;21151;-82
2021/09/26 02:47:18;;;;;;;15.72;13.30;;;;;;;16.35;100.00;99202.48;2185755;81;20981;-82
2021/09/26 02:50:19;;;;;;;16.10;13.90;;;;;;;16.36;100.00;99205.42;2186153;81;21024;-82
2021/09/26 02:53:20;;;;;;;18.60;13.48;;;;;;;16.33;100.00;99208.48;2185867;81;21021;-82
2021/09/26 02:56:20;;;;;;;16.67;13.55;;;;;;;16.31;100.00;99207.87;2185895;81;21039;-82
2021/09/26 02:59:21;;;;;;;16.12;14.43;;;;;;;16.32;100.00;99204.72;2185897;81;21556;-82
2021/09/26 03:02:22;;;;;;;17.85;13.32;;;;;;;16.32;100.00;99205.53;2186156;81;20950;-82
2021/09/26 03:05:23;;;;;;;16.32;14.10;;;;;;;16.32;100.00;99208.18;2186355;81;21012;-82
2021/09/26 03:08:23;;;;;;;14.95;13.20;;;;;;;16.32;100.00;99213.47;2185786;81;21076;-84
2021/09/26 03:11:24;;;;;;;16.07;13.95;;;;;;;16.33;100.00;99216.91;2185866;81;21472;-81
2021/09/26 03:14:25;;;;;;;17.20;14.80;;;;;;;16.34;100.00;99209.30;2185971;81;20997;-82
2021/09/26 03:17:26;;;;;;;16.90;14.13;;;;;;;16.33;100.00;99211.13;2185921;81;20933;-82
2021/09/26 03:20:27;;;;;;;15.80;13.40;;;;;;;16.33;100.00;99217.73;2185740;81;21005;-84
2021/09/26 03:23:28;;;;;;;15.18;13.53;;;;;;;16.33;100.00;99223.52;2184682;81;21073;-82
2021/09/26 03:26:28;;;;;;;16.77;14.28;;;;;;;16.32;100.00;99215.30;2182173;82;21640;-82
2021/09/26 03:29:32;;;;;;;16.23;13.90;;;;;;;16.32;100.00;99219.26;2182190;82;21012;-82
2021/09/26 03:32:32;;;;;;;15.70;13.95;;;;;;;16.32;100.00;99220.07;2182281;81;21061;-82
2021/09/26 03:35:36;;;;;;;14.50;12.98;;;;;;;16.31;100.00;99221.60;2182689;82;21012;-83
2021/09/26 03:38:35;;;;;;;16.55;14.80;;;;;;;16.29;100.00;99221.00;2182092;81;21081;-83
2021/09/26 03:41:36;;;;;;;15.90;14.20;;;;;;;16.26;100.00;99220.06;2182119;82;20977;-83
2021/09/26 03:44:37;;;;;;;19.02;14.80;;;;;;;16.26;100.00;99222.70;2182203;81;21131;-83
2021/09/26 03:47:38;;;;;;;17.37;14.43;;;;;;;16.25;100.00;99221.89;2182224;82;20978;-83
2021/09/26 03:50:38;;;;;;;19.40;13.70;;;;;;;16.27;100.00;99218.53;2182018;82;21309;-83
2021/09/26 03:53:39;;;;;;;19.55;14.07;;;;;;;16.24;100.00;99223.42;2181851;82;21060;-83
2021/09/26 03:56:40;;;;;;;15.13;12.33;;;;;;;16.20;100.00;99217.75;2182190;82;21503;-83
2021/09/26 03:59:41;;;;;;;15.35;12.95;;;;;;;16.15;100.00;99218.84;2182041;82;20977;-83
2021/09/26 04:02:42;;;;;;;14.75;13.30;;;;;;;16.09;100.00;99217.85;2181953;82;21497;-82
2021/09/26 04:05:43;;;;;;;16.90;14.30;;;;;;;16.10;100.00;99218.16;2182256;82;21024;-83
2021/09/26 04:08:43;;;;;;;14.05;12.53;;;;;;;16.13;100.00;99221.70;2182032;82;20992;-83
2021/09/26 04:11:44;;;;;;;16.50;13.55;;;;;;;16.12;100.00;99217.44;2182045;82;21068;-83
2021/09/26 04:14:45;;;;;;;15.18;13.60;;;;;;;16.13;100.00;99213.77;2182303;82;20969;-83
2021/09/26 04:17:46;;;;;;;15.40;13.72;;;;;;;16.10;100.00;99214.70;2182301;82;20970;-83
2021/09/26 04:20:47;;;;;;;13.85;12.40;;;;;;;16.04;100.00;99215.50;2182162;82;20992;-83
2021/09/26 04:23:48;;;;;;;14.93;13.28;;;;;;;16.01;100.00;99210.13;2183111;81;21584;-82
2021/09/26 04:26:48;;;;;;;17.75;13.83;;;;;;;15.96;100.00;99212.55;2185939;81;20993;-83
2021/09/26 04:29:49;;;;;;;15.48;13.90;;;;;;;15.94;100.00;99221.18;2185701;81;20989;-82
2021/09/26 04:32:50;;;;;;;20.70;14.47;;;;;;;15.93;100.00;99220.88;2185768;81;21024;-82
2021/09/26 04:35:51;;;;;;;17.65;13.98;;;;;;;15.95;100.00;99221.99;2185942;81;21043;-83
2021/09/26 04:38:52;;;;;;;16.02;14.28;;;;;;;15.96;100.00;99227.06;2185717;81;21030;-83
2021/09/26 04:41:52;;;;;;;15.65;13.40;;;;;;;15.98;100.00;99229.50;2185787;81;22113;-82
2021/09/26 04:44:53;;;;;;;19.05;14.40;;;;;;;16.00;100.00;99232.27;2185725;81;21020;-82
2021/09/26 04:47:54;;;;;;;17.48;14.80;;;;;;;16.04;100.00;99232.16;2185801;81;20961;-83
2021/09/26 04:50:55;;;;;;;15.10;13.60;;;;;;;16.02;100.00;99230.73;2186355;81;21055;-83
2021/09/26 04:53:56;;;;;;;17.10;14.03;;;;;;;15.99;100.00;99235.09;2185657;81;21025;-83
2021/09/26 04:56:57;;;;;;;15.83;14.10;;;;;;;15.98;100.00;99238.23;2185479;81;21363;-83
2021/09/26 04:59:57;;;;;;;19.17;16.37;;;;;;;15.97;100.00;99237.94;2185757;81;20949;-82
2021/09/26 05:02:58;;;;;;;17.70;15.55;;;;;;;15.96;100.00;99234.98;2185664;81;21011;-83
2021/09/26 05:05:59;;;;;;;16.62;14.85;;;;;;;15.98;100.00;99234.28;2185708;81;21492;-82
2021/09/26 05:09:00;;;;;;;19.77;14.33;;;;;;;16.03;100.00;99246.89;2185442;81;20997;-83
2021/09/26 05:12:01;;;;;;;18.62;14.75;;;;;;;16.00;100.00;99241.99;2185838;81;21519;-82
2021/09/26 05:15:03;;;;;;;15.75;12.75;;;;;;;15.99;100.00;99245.14;2185658;81;21025;-82
2021/09/26 05:18:04;;;;;;;16.55;14.40;;;;;;;16.03;100.00;99246.89;2185899;81;20989;-83
2021/09/26 05:21:05;;;;;;;15.90;14.15;;;;;;;16.00;100.00;99240.19;2185894;81;21008;-82
2021/09/26 05:24:06;;;;;;;16.23;14.07;;;;;;;16.01;100.00;99243.14;2184383;81;21001;-83
2021/09/26 05:27:07;;;;;;;16.27;13.83;;;;;;;16.06;100.00;99250.44;2182202;82;21552;-83
2021/09/26 05:30:07;;;;;;;16.95;14.10;;;;;;;16.10;100.00;99251.68;2182051;82;20981;-83
2021/09/26 05:33:08;;;;;;;15.13;13.53;;;;;;;16.16;100.00;99249.02;2181964;82;21557;-83
2021/09/26 05:36:09;;;;;;;16.97;15.13;;;;;;;16.24;100.00;99247.20;2181969;82;21083;-82
2021/09/26 05:39:10;;;;;;;17.12;14.03;;;;;;;16.22;100.00;99252.70;2182074;82;20953;-82
2021/09/26 05:42:11;;;;;;;15.43;13.68;;;;;;;16.27;100.00;99260.81;2182643;82;21480;-83
2021/09/26 05:45:12;;;;;;;14.63;12.90;;;;;;;16.26;100.00;99242.02;2181615;82;21072;-83
2021/09/26 05:48:13;;;;;;;15.43;13.08;;;;;;;16.31;100.00;99252.80;2182077;82;21571;-83
2021/09/26 05:51:13;;;;;;;16.55;13.00;;;;;;;16.28;100.00;99253.22;2182162;82;21134;-82
2021/09/26 05:54:14;;;;;;;15.40;13.22;;;;;;;16.31;100.00;99262.05;2182082;82;21001;-83
2021/09/26 05:57:15;;;;;;;17.50;14.35;;;;;;;16.33;100.00;99259.20;2182060;82;21611;-82
2021/09/26 06:00:17;;;;;;;16.85;14.70;;;;;;;16.38;100.00;99260.73;2182133;82;21001;-82
2021/09/26 06:03:18;;;;;;;16.65;13.90;;;;;;;16.42;100.00;99257.97;2182138;82;21485;-82
2021/09/26 06:06:19;;;;;;;17.42;14.65;;;;;;;16.46;100.00;99264.50;2182340;82;21094;-82
2021/09/26 06:09:20;;;;;;;17.20;15.30;;;;;;;16.46;100.00;99262.67;2182072;82;20977;-82
2021/09/26 06:12:20;;;;;;;15.80;14.10;;;;;;;16.49;100.00;99263.57;2181922;82;21080;-82
2021/09/26 06:15:21;;;;;;;18.25;13.60;;;;;;;16.42;100.00;99268.55;2182147;82;21492;-82
2021/09/26 06:18:22;;;;;;;19.35;15.88;;;;;;;16.34;100.00;99269.55;2182066;82;21044;-82
2021/09/26 06:21:23;;;;;;;19.98;15.13;;;;;;;16.30;100.00;99274.14;2181949;82;21008;-82
2021/09/26 06:24:24;;;;;;;18.90;14.90;;;;;;;16.40;100.00;99273.23;2181682;81;20997;-82
2021/09/26 06:27:25;;;;;;;18.75;15.15;;;;;;;16.48;100.00;99284.92;2181624;81;21363;-82
2021/09/26 06:30:26;;;;;;;19.20;15.00;;;;;;;16.58;100.00;99283.19;2181889;82;21001;-83
2021/09/26 06:33:26;;;;;;;17.50;15.58;;;;;;;16.65;100.00;99285.33;2181906;82;20965;-82
2021/09/26 06:36:27;;;;;;;20.12;16.12;;;;;;;16.70;100.00;99294.28;2181930;82;21073;-83
2021/09/26 06:39:28;;;;;;;24.92;17.37;;;;;;;16.79;100.00;99296.20;2182614;82;21605;-82
2021/09/26 06:42:29;;;;;;;24.35;18.20;;;;;;;16.86;100.00;99300.98;2181971;82;21040;-81
2021/09/26 06:45:29;;;;;;;32.55;19.00;;;;;;;16.93;100.00;99300.47;2182040;82;21515;-83
2021/09/26 06:48:30;;;;;;;28.50;19.00;;;;;;;17.00;100.00;99301.77;2181924;82;21029;-82
2021/09/26 06:51:32;;;;;;;29.02;18.50;;;;;;;17.09;100.00;99308.97;2182003;82;21100;-83
2021/09/26 06:54:33;;;;;;;18.60;16.45;;;;;;;17.13;100.00;99304.91;2182033;82;21020;-83
2021/09/26 06:57:34;;;;;;;23.32;17.45;;;;;;;17.22;100.00;99303.16;2182138;82;20958;-82
2021/09/26 07:00:35;;;;;;;21.50;16.87;;;;;;;17.29;100.00;99302.63;2182038;82;21032;-83
2021/09/26 07:03:35;;;;;;;19.60;16.15;;;;;;;17.34;100.00;99304.12;2181997;82;21044;-82
2021/09/26 07:06:37;;;;;;;19.20;15.50;;;;;;;17.42;100.00;99303.08;2181698;82;20990;-82
2021/09/26 07:09:39;;;;;;;23.30;16.75;;;;;;;17.47;100.00;99309.09;2182075;82;21037;-82
2021/09/26 07:12:40;;;;;;;19.27;16.45;;;;;;;17.47;100.00;99309.89;2182027;82;21476;-83
2021/09/26 07:15:41;;;;;;;22.58;17.67;;;;;;;17.51;100.00;99320.88;2182147;82;21008;-83
2021/09/26 07:18:41;;;;;;;23.57;17.82;;;;;;;17.60;100.00;99317.77;2181824;82;21001;-83
2021/09/26 07:21:42;;;;;;;20.15;18.10;;;;;;;17.71;100.00;99316.84;2181944;82;20973;-85
2021/09/26 07:24:43;;;;;;;21.42;17.37;;;;;;;17.79;100.00;99314.77;2182675;81;21615;-84
2021/09/26 07:27:44;;;;;;;20.50;17.67;;;;;;;17.83;100.00;99321.28;2185566;81;20997;-84
2021/09/26 07:30:45;;;;;;;20.68;16.42;;;;;;;17.84;100.00;99320.77;2185696;81;21531;-84
2021/09/26 07:33:46;;;;;;;21.40;18.30;;;;;;;17.86;100.00;99320.84;2185745;81;21021;-83
2021/09/26 07:36:46;;;;;;;23.50;18.98;;;;;;;17.93;100.00;99327.95;2185790;81;20974;-84
2021/09/26 07:39:47;;;;;;;17.37;15.63;;;;;;;18.05;100.00;99327.06;2185854;81;21089;-83
2021/09/26 07:42:48;;;;;;;23.62;17.55;;;;;;;18.10;100.00;99334.36;2185799;81;21000;-82
2021/09/26 07:45:49;;;;;;;19.73;16.90;;;;;;;18.16;100.00;99334.33;2185978;81;21452;-86
2021/09/26 07:48:50;;;;;;;20.60;17.35;;;;;;;18.22;100.00;99341.14;2185685;81;21036;-84
2021/09/26 07:51:50;;;;;;;17.00;15.20;;;;;;;18.27;100.00;99343.94;2185819;81;21514;-82
2021/09/26 07:54:52;;;;;;;18.57;14.65;;;;;;;18.29;100.00;99342.72;2185756;81;20981;-83
2021/09/26 07:57:53;;;;;;;17.98;14.43;;;;;;;18.30;100.00;99346.19;2185826;81;21016;-88
2021/09/26 08:00:53;;;;;;;18.15;12.80;;;;;;;18.30;100.00;99347.52;2185799;81;20976;-84
2021/09/26 08:03:54;;;;;;;14.60;13.15;;;;;;;18.37;100.00;99349.58;2186418;81;21536;-84
2021/09/26 08:06:55;;;;;;;14.90;13.43;;;;;;;18.42;100.00;99353.22;2185733;81;21016;-83
2021/09/26 08:09:56;;;;;;;16.00;13.80;;;;;;;18.44;100.00;99357.80;2185876;81;21046;-84
2021/09/26 08:12:57;;;;;;;15.28;13.68;;;;;;;18.44;100.00;99347.70;2185909;81;21647;-84
2021/09/26 08:16:01;;;;;;;13.10;11.90;;;;;;;18.46;100.00;99352.27;2185788;81;21048;-85
2021/09/26 08:19:01;;;;;;;15.48;13.30;;;;;;;18.51;100.00;99357.75;2186445;81;21091;-87
2021/09/26 08:22:01;;;;;;;14.78;12.90;;;;;;;18.54;100.00;99350.69;2186756;81;21000;-84
2021/09/26 08:25:03;;;;;;;14.60;13.10;;;;;;;18.57;100.00;99354.25;2185927;81;21021;-82
2021/09/26 08:28:04;;;;;;;16.70;14.10;;;;;;;18.66;100.00;99355.64;2185741;81;21026;-83
2021/09/26 08:31:06;;;;;;;16.95;13.95;;;;;;;18.75;100.00;99355.67;2185776;81;21000;-85
2021/09/26 08:34:07;;;;;;;17.30;14.95;;;;;;;18.81;100.00;99352.64;2185759;81;21007;-85
2021/09/26 08:37:07;;;;;;;16.05;13.13;;;;;;;18.87;100.00;99357.61;2185892;81;21059;-85
2021/09/26 08:40:08;;;;;;;17.80;14.53;;;;;;;18.98;100.00;99350.25;2185644;81;21575;-85
2021/09/26 08:43:09;;;;;;;17.00;15.23;;;;;;;18.94;100.00;99357.05;2185909;81;21051;-83
2021/09/26 08:46:10;;;;;;;18.02;14.93;;;;;;;18.87;100.00;99361.07;2185663;81;20973;-83
2021/09/26 08:49:11;;;;;;;19.07;14.43;;;;;;;18.92;100.00;99362.54;2185733;81;21082;-84
2021/09/26 08:52:11;;;;;;;15.15;13.58;;;;;;;19.01;100.00;99358.58;2185720;81;21567;-84
2021/09/26 08:55:12;;;;;;;15.83;14.00;;;;;;;19.19;100.00;99364.95;2185675;81;21073;-83
2021/09/26 08:58:13;;;;;;;19.30;14.95;;;;;;;19.35;100.00;99370.20;2185819;81;21051;-84
2021/09/26 09:01:14;;;;;;;15.18;13.48;;;;;;;19.54;100.00;99367.85;2185781;81;21481;-84
2021/09/26 09:04:15;;;;;;;22.22;15.28;;;;;;;19.74;100.00;99352.52;2185685;81;21080;-85
2021/09/26 09:07:16;;;;;;;18.10;15.40;;;;;;;19.87;100.00;99353.70;2185594;81;21010;-82
2021/09/26 09:10:17;;;;;;;16.70;13.90;;;;;;;19.92;100.00;99355.66;2185759;81;20995;-83
2021/09/26 09:13:17;;;;;;;16.07;12.65;;;;;;;19.95;100.00;99358.41;2185609;81;21127;-81
2021/09/26 09:16:19;;;;;;;20.77;13.35;;;;;;;19.93;100.00;99353.81;2185724;81;21016;-82
2021/09/26 09:19:20;;;;;;;17.67;13.30;;;;;;;19.93;100.00;99353.30;2185556;81;21531;-83
2021/09/26 09:22:24;;;;;;;16.42;14.68;;;;;;;19.97;100.00;99358.47;2185612;81;21082;-82
2021/09/26 09:25:25;;;;;;;17.80;14.80;;;;;;;20.10;100.00;99352.16;2185594;81;21069;-83
2021/09/26 09:28:25;;;;;;;24.30;13.80;;;;;;;20.13;100.00;99358.37;2185756;81;21531;-82
2021/09/26 09:31:26;;;;;;;20.23;15.80;;;;;;;20.22;100.00;99360.20;2185501;81;21001;-84
2021/09/26 09:34:27;;;;;;;21.40;15.00;;;;;;;20.34;100.00;99359.70;2185756;81;21051;-86
2021/09/26 09:37:28;;;;;;;27.27;14.70;;;;;;;20.37;100.00;99358.72;2185730;81;21013;-82
2021/09/26 09:40:29;;;;;;;17.67;14.75;;;;;;;20.47;100.00;99364.84;2185570;81;21559;-82
2021/09/26 09:43:30;;;;;;;20.15;15.05;;;;;;;20.54;100.00;99362.89;2185688;81;20980;-82
2021/09/26 09:46:31;;;;;;;18.82;14.60;;;;;;;20.58;100.00;99364.59;2185550;81;21302;-82
2021/09/26 09:49:31;;;;;;;14.80;13.22;;;;;;;20.61;100.00;99364.94;2185529;81;21032;-82
2021/09/26 09:52:32;;;;;;;16.87;14.85;;;;;;;20.76;100.00;99363.67;2185514;81;20966;-82
2021/09/26 09:55:35;;;;;;;19.27;14.85;;;;;;;20.87;100.00;99359.71;2185643;81;20981;-82
2021/09/26 09:58:36;;;;;;;18.40;15.15;;;;;;;21.03;100.00;99363.55;2185690;81;21053;-82
2021/09/26 10:01:37;;;;;;;14.38;12.68;;;;;;;21.14;100.00;99358.73;2185723;81;21615;-83
2021/09/26 10:04:37;;;;;;;15.58;14.00;;;;;;;21.31;100.00;99363.39;2185613;81;21077;-82
2021/09/26 10:07:38;;;;;;;14.47;12.93;;;;;;;21.27;100.00;99362.50;2185566;81;21523;-83
2021/09/26 10:10:39;;;;;;;14.00;12.50;;;;;;;21.24;100.00;99366.13;2185560;81;21007;-82
2021/09/26 10:13:40;;;;;;;12.95;11.73;;;;;;;21.27;100.00;99367.83;2185579;81;20999;-83
2021/09/26 10:16:41;;;;;;;14.55;12.23;;;;;;;21.38;100.00;99368.05;2185236;81;21049;-83
2021/09/26 10:19:42;;;;;;;13.70;12.30;;;;;;;21.55;100.00;99367.62;2185725;81;21552;-83
2021/09/26 10:22:43;;;;;;;15.13;11.97;;;;;;;21.65;100.00;99369.16;2185632;81;21572;-83
2021/09/26 10:25:44;;;;;;;14.93;11.93;;;;;;;21.81;100.00;99364.42;2185346;81;21068;-83
2021/09/26 10:28:44;;;;;;;13.20;10.25;;;;;;;21.84;100.00;99364.47;2185677;81;21076;-83
2021/09/26 10:31:45;;;;;;;11.08;10.00;;;;;;;21.87;100.00;99365.34;2185668;81;21020;-83
2021/09/26 10:34:46;;;;;;;11.68;10.48;;;;;;;21.84;100.00;99371.13;2185658;81;21011;-83
2021/09/26 10:37:47;;;;;;;13.58;11.68;;;;;;;21.96;100.00;99366.59;2185765;81;21012;-83
2021/09/26 10:40:48;;;;;;;12.05;10.93;;;;;;;22.05;100.00;99368.35;2185756;81;21016;-83
2021/09/26 10:43:49;;;;;;;11.45;9.95;;;;;;;22.10;100.00;99366.60;2185688;81;21365;-83
2021/09/26 10:46:49;;;;;;;11.30;10.18;;;;;;;22.12;100.00;99363.16;2185660;81;21104;-83
2021/09/26 10:49:50;;;;;;;10.00;9.00;;;;;;;22.18;100.00;99362.75;2185534;81;20981;-84
2021/09/26 10:52:52;;;;;;;8.28;7.58;;;;;;;22.25;100.00;99359.94;2185671;81;21123;-84
2021/09/26 10:55:53;;;;;;;10.10;8.95;;;;;;;22.16;100.00;99354.18;2185614;81;21028;-84
2021/09/26 10:58:54;;;;;;;10.18;9.18;;;;;;;22.19;99.36;99355.55;2185690;81;20945;-83
2021/09/26 11:01:55;;;;;;;9.70;8.80;;;;;;;22.03;100.00;99346.42;2185561;81;21084;-83
2021/09/26 11:04:56;;;;;;;7.62;7.03;;;;;;;22.05;99.79;99346.50;2185467;81;21032;-83
2021/09/26 11:07:57;;;;;;;13.00;7.35;;;;;;;22.04;98.98;99346.73;2185668;81;21691;-83
2021/09/26 11:10:58;;;;;;;7.37;6.72;;;;;;;22.06;98.97;99337.97;2185942;81;20981;-82
2021/09/26 11:14:00;;;;;;;8.20;7.22;;;;;;;22.06;97.97;99341.44;2185348;81;21167;-82
2021/09/26 11:17:01;;;;;;;5.97;5.42;;;;;;;22.05;96.94;99337.69;2185901;81;20959;-83
2021/09/26 11:20:01;;;;;;;6.80;6.25;;;;;;;21.95;94.64;99338.84;2185920;81;20984;-87
2021/09/26 11:23:02;;;;;;;9.80;5.25;;;;;;;21.77;96.70;99334.50;2185780;81;21041;-84
2021/09/26 11:26:06;;;;;;;5.45;4.95;;;;;;;21.79;96.45;99339.06;2185723;81;21638;-83
2021/09/26 11:29:07;;;;;;;8.63;6.12;;;;;;;21.67;92.06;99335.60;2185998;81;21084;-83
2021/09/26 11:32:08;;;;;;;5.85;4.90;;;;;;;21.53;91.84;99336.41;2185803;81;21004;-84
2021/09/26 11:35:08;;;;;;;9.15;5.17;;;;;;;21.47;90.66;99331.48;2185838;81;21103;-83
2021/09/26 11:38:09;;;;;;;6.22;5.72;;;;;;;21.46;92.65;99330.40;2186043;81;21048;-84
2021/09/26 11:41:10;;;;;;;6.10;5.60;;;;;;;21.49;93.49;99330.75;2185853;81;21033;-83
2021/09/26 11:44:16;;;;;;;5.15;4.85;;;;;;;21.55;93.22;99332.45;2185967;81;21543;-83
2021/09/26 11:47:14;;;;;;;5.85;4.55;;;;;;;21.61;91.17;99328.58;2185122;81;21059;-83
2021/09/26 11:50:15;;;;;;;5.45;4.78;;;;;;;21.70;90.29;99322.64;2186097;81;22163;-84
2021/09/26 11:53:19;;;;;;;4.08;3.77;;;;;;;21.84;89.67;99329.81;2185848;81;21131;-83
2021/09/26 11:56:19;;;;;;;4.83;4.42;;;;;;;21.94;83.38;99326.00;2185428;81;21083;-83
2021/09/26 11:59:20;;;;;;;5.62;5.12;;;;;;;21.93;85.61;99319.58;2186125;81;21615;-83
2021/09/26 12:02:20;;;;;;;4.58;4.17;;;;;;;21.99;87.84;99319.97;2186328;81;20946;-83
2021/09/26 12:05:21;;;;;;;5.08;4.78;;;;;;;22.00;86.94;99317.06;2185803;81;21068;-84
2021/09/26 12:08:23;;;;;;;5.12;4.05;;;;;;;22.08;87.13;99313.23;2186127;81;21001;-89
2021/09/26 12:11:24;;;;;;;7.17;5.83;;;;;;;22.20;86.84;99313.97;2186213;81;21044;-90
2021/09/26 12:14:28;;;;;;;5.47;4.97;;;;;;;22.27;87.41;99311.97;2185865;81;22110;-84
2021/09/26 12:17:27;;;;;;;4.80;4.40;;;;;;;22.36;86.81;99310.52;2185391;81;21097;-90
2021/09/26 12:20:28;;;;;;;4.47;4.08;;;;;;;22.33;85.09;99307.01;2185849;81;20962;-86
2021/09/26 12:23:29;;;;;;;8.63;4.45;;;;;;;22.39;84.81;99307.36;2186180;81;21004;-83
2021/09/26 12:26:30;;;;;;;4.78;4.47;;;;;;;22.45;84.36;99310.93;2184218;81;21069;-82
2021/09/26 12:29:31;;;;;;;4.03;3.67;;;;;;;22.47;83.70;99304.81;2182153;82;20985;-83
2021/09/26 12:32:34;;;;;;;3.00;2.80;;;;;;;22.34;78.54;99307.29;2182082;82;20996;-85
2021/09/26 12:35:34;;;;;;;5.37;3.80;;;;;;;22.16;77.95;99300.04;2182143;82;21041;-84
2021/09/26 12:38:35;;;;;;;4.50;4.20;;;;;;;22.05;79.42;99297.17;2182161;82;21554;-83
2021/09/26 12:41:36;;;;;;;5.40;4.95;;;;;;;22.02;79.53;99292.82;2181992;82;20942;-84
2021/09/26 12:44:37;;;;;;;4.90;4.42;;;;;;;21.88;80.73;99292.33;2182004;82;21577;-82
2021/09/26 12:47:38;;;;;;;5.17;4.75;;;;;;;21.72;80.09;99294.41;2182088;82;21007;-83
2021/09/26 12:50:40;;;;;;;11.97;7.55;;;;;;;21.64;80.56;99294.27;2182206;82;21041;-84
2021/09/26 12:53:41;;;;;;;18.85;12.00;;;;;;;21.69;82.54;99294.89;2182187;82;21104;-83
2021/09/26 12:56:44;;;;;;;8.50;6.10;;;;;;;21.72;83.06;99295.22;2182041;82;21559;-85
2021/09/26 12:59:45;;;;;;;7.25;6.30;;;;;;;21.72;82.98;99301.07;2182185;82;21043;-85
2021/09/26 13:02:46;;;;;;;6.95;6.22;;;;;;;21.74;83.67;99298.45;2182099;82;21567;-84
2021/09/26 13:05:46;;;;;;;6.67;5.97;;;;;;;21.68;84.21;99299.42;2182220;82;21061;-86
2021/09/26 13:08:47;;;;;;;6.97;6.12;;;;;;;21.62;84.25;99297.69;2182172;82;21554;-85
2021/09/26 13:11:48;;;;;;;7.95;6.17;;;;;;;21.57;83.91;99293.05;2182165;82;21359;-85
2021/09/26 13:14:49;;;;;;;6.83;6.12;;;;;;;21.48;84.49;99289.15;2182300;82;21503;-84
2021/09/26 13:17:50;;;;;;;6.55;5.95;;;;;;;21.40;84.99;99288.22;2182267;82;20938;-86
2021/09/26 13:20:51;;;;;;;5.95;5.45;;;;;;;21.37;84.97;99280.67;2182079;82;21040;-83
2021/09/26 13:23:52;;;;;;;7.45;5.95;;;;;;;21.34;85.58;99275.83;2181976;82;20966;-83
2021/09/26 13:26:53;;;;;;;5.87;5.22;;;;;;;21.31;85.53;99272.84;2167739;81;21041;-84
2021/09/26 13:29:54;;;;;;;8.63;5.30;;;;;;;21.32;84.87;99274.45;2148050;83;21070;-83
2021/09/26 13:32:55;;;;;;;5.10;4.70;;;;;;;21.28;85.26;99276.23;2104060;85;21036;-84
2021/09/26 13:35:56;;;;;;;5.45;4.97;;;;;;;21.27;85.35;99275.14;2148339;83;21005;-84
2021/09/26 13:39:00;;;;;;;5.05;4.65;;;;;;;21.24;85.34;99283.58;2148273;83;20965;-84
2021/09/26 13:41:59;;;;;;;6.25;5.75;;;;;;;21.22;84.79;99281.16;2103441;85;21021;-84
2021/09/26 13:45:00;;;;;;;6.40;5.78;;;;;;;21.23;84.71;99279.30;2148453;82;20934;-84
2021/09/26 13:48:03;;;;;;;5.92;5.33;;;;;;;21.22;85.90;99284.34;2148391;83;20989;-84